createdAt,value
2022-12-26T00:00:53.117Z,8100.00
2022-12-26T00:06:00.291Z,8316.00
2022-12-26T00:11:07.453Z,7344.00
2022-12-26T00:16:14.744Z,7308.00
2022-12-26T00:21:21.898Z,7488.00
2022-12-26T00:26:29.066Z,7560.00
2022-12-26T00:31:36.387Z,7344.00
2022-12-26T00:36:43.680Z,7308.00
2022-12-26T00:41:50.999Z,7380.00
2022-12-26T00:46:58.294Z,7236.00
2022-12-26T00:52:05.444Z,7380.00
2022-12-26T00:57:12.637Z,7308.00
2022-12-26T01:02:19.921Z,7272.00
2022-12-26T01:07:27.031Z,7560.00
2022-12-26T01:12:34.282Z,7740.00
2022-12-26T01:17:41.537Z,7380.00
2022-12-26T01:22:48.754Z,7380.00
2022-12-26T01:27:55.950Z,7452.00
2022-12-26T01:33:03.244Z,7380.00
2022-12-26T01:38:10.445Z,7488.00
2022-12-26T01:43:17.579Z,7380.00
2022-12-26T01:48:24.812Z,7560.00
2022-12-26T01:53:32.098Z,7632.00
2022-12-26T01:58:39.304Z,7416.00
2022-12-26T02:03:46.477Z,-72.00
2022-12-26T02:08:53.705Z,-108.00
2022-12-26T02:14:00.891Z,-108.00
2022-12-26T02:19:08.095Z,-108.00
2022-12-26T02:24:15.449Z,-108.00
2022-12-26T02:29:22.683Z,-36.00
2022-12-26T02:34:29.929Z,-72.00
2022-12-26T02:39:45.138Z,-108.00
2022-12-26T02:44:44.329Z,-108.00
2022-12-26T02:49:51.552Z,-108.00
2022-12-26T02:54:58.761Z,-72.00
2022-12-26T03:00:05.973Z,-108.00
2022-12-26T03:05:13.201Z,-108.00
2022-12-26T03:10:20.501Z,-108.00
2022-12-26T03:15:27.680Z,-108.00
2022-12-26T03:20:34.944Z,-108.00
2022-12-26T03:25:42.276Z,-72.00
2022-12-26T03:30:49.611Z,-72.00
2022-12-26T03:35:56.758Z,-72.00
2022-12-26T03:41:03.953Z,-72.00
2022-12-26T03:46:11.225Z,-108.00
2022-12-26T03:51:18.389Z,-108.00
2022-12-26T03:56:25.611Z,-72.00
2022-12-26T04:01:32.867Z,-108.00
2022-12-26T04:06:40.007Z,-108.00
2022-12-26T04:11:47.243Z,-72.00
2022-12-26T04:16:54.469Z,-108.00
2022-12-26T04:22:01.623Z,-72.00
2022-12-26T04:27:08.852Z,-108.00
2022-12-26T04:32:16.030Z,-72.00
2022-12-26T04:37:23.215Z,-72.00
2022-12-26T04:42:30.500Z,-72.00
2022-12-26T04:47:37.776Z,-72.00
2022-12-26T04:52:44.996Z,-72.00
2022-12-26T04:57:52.265Z,-72.00
2022-12-26T05:02:59.721Z,-72.00
2022-12-26T05:08:06.682Z,-72.00
2022-12-26T05:13:13.843Z,-72.00
2022-12-26T05:18:20.959Z,-108.00
2022-12-26T05:23:28.220Z,-72.00
2022-12-26T05:28:35.407Z,-72.00
2022-12-26T05:33:42.674Z,-36.00
2022-12-26T05:38:49.840Z,-36.00
2022-12-26T05:43:57.034Z,-72.00
2022-12-26T05:49:04.303Z,-72.00
2022-12-26T05:54:11.522Z,-72.00
2022-12-26T05:59:18.747Z,-72.00
2022-12-26T06:04:25.968Z,-72.00
2022-12-26T06:09:33.133Z,-72.00
2022-12-26T06:14:40.366Z,-72.00
2022-12-26T06:19:47.554Z,-108.00
2022-12-26T06:24:54.787Z,-72.00
2022-12-26T06:30:02.070Z,-72.00
2022-12-26T06:35:09.259Z,-72.00
2022-12-26T06:40:16.452Z,-72.00
2022-12-26T06:45:23.810Z,-72.00
2022-12-26T06:50:30.976Z,-72.00
2022-12-26T06:55:38.171Z,-72.00
2022-12-26T07:00:45.497Z,-72.00
2022-12-26T07:05:52.586Z,-72.00
2022-12-26T07:10:59.776Z,-72.00
2022-12-26T07:16:07.031Z,-36.00
2022-12-26T07:21:14.162Z,-36.00
2022-12-26T07:26:21.394Z,0.00
2022-12-26T07:31:28.660Z,0.00
2022-12-26T07:36:35.872Z,0.00
2022-12-26T07:41:43.135Z,36.00
2022-12-26T07:46:50.341Z,36.00
2022-12-26T07:51:57.532Z,36.00
2022-12-26T07:57:38.022Z,108.00
2022-12-26T08:02:12.248Z,72.00
2022-12-26T08:07:19.199Z,108.00
2022-12-26T08:12:26.349Z,108.00
2022-12-26T08:17:33.570Z,144.00
2022-12-26T08:22:40.744Z,180.00
2022-12-26T08:27:47.964Z,144.00
2022-12-26T08:32:55.225Z,216.00
2022-12-26T08:38:02.380Z,180.00
2022-12-26T08:43:30.263Z,180.00
2022-12-26T08:48:16.735Z,216.00
2022-12-26T08:53:23.877Z,180.00
2022-12-26T08:58:31.155Z,144.00
2022-12-26T09:03:38.330Z,180.00
2022-12-26T09:08:45.513Z,180.00
2022-12-26T09:13:52.725Z,144.00
2022-12-26T09:18:59.922Z,216.00
2022-12-26T09:24:07.090Z,180.00
2022-12-26T09:29:14.269Z,252.00
2022-12-26T09:34:21.482Z,324.00
2022-12-26T09:39:28.711Z,288.00
2022-12-26T09:44:35.870Z,360.00
2022-12-26T09:49:43.130Z,288.00
2022-12-26T09:54:50.351Z,288.00
2022-12-26T09:59:57.555Z,288.00
2022-12-26T10:05:04.816Z,324.00
2022-12-26T10:10:12.050Z,216.00
2022-12-26T10:15:19.257Z,15120.00
2022-12-26T10:20:26.490Z,15156.00
2022-12-26T10:25:34.122Z,16596.00
2022-12-26T10:30:40.905Z,14112.00
2022-12-26T10:35:48.068Z,14112.00
2022-12-26T10:40:55.304Z,13968.00
2022-12-26T10:46:02.533Z,12852.00
2022-12-26T10:51:09.704Z,14292.00
2022-12-26T10:56:18.482Z,13572.00
2022-12-26T11:01:24.208Z,12852.00
2022-12-26T11:06:31.360Z,10944.00
2022-12-26T11:11:38.503Z,8892.00
2022-12-26T11:16:45.750Z,9504.00
2022-12-26T11:21:53.044Z,6012.00
2022-12-26T11:27:00.209Z,6156.00
2022-12-26T11:32:07.450Z,5940.00
2022-12-26T11:37:14.710Z,5652.00
2022-12-26T11:42:21.948Z,5940.00
2022-12-26T11:47:29.154Z,6480.00
2022-12-26T11:52:36.382Z,7308.00
2022-12-26T11:57:43.539Z,8460.00
2022-12-26T12:02:50.788Z,7344.00
2022-12-26T12:07:58.016Z,6984.00
2022-12-26T12:13:05.139Z,8784.00
2022-12-26T12:18:12.381Z,7416.00
2022-12-26T12:23:19.627Z,9720.00
2022-12-26T12:28:26.887Z,8712.00
2022-12-26T12:33:34.087Z,7812.00
2022-12-26T12:38:41.334Z,6552.00
2022-12-26T12:43:48.489Z,5220.00
2022-12-26T12:48:55.690Z,4572.00
2022-12-26T12:54:02.941Z,4212.00
2022-12-26T12:59:10.066Z,4068.00
2022-12-26T13:04:17.267Z,4320.00
2022-12-26T13:09:24.556Z,4788.00
2022-12-26T13:14:31.720Z,4464.00
2022-12-26T13:19:38.928Z,4536.00
2022-12-26T13:24:46.180Z,3420.00
2022-12-26T13:29:53.421Z,4392.00
2022-12-26T13:35:00.637Z,4608.00
2022-12-26T13:40:07.923Z,3240.00
2022-12-26T13:45:15.084Z,3852.00
2022-12-26T13:50:22.254Z,2988.00
2022-12-26T13:55:29.585Z,4140.00
2022-12-26T14:00:36.784Z,3600.00
2022-12-26T14:05:43.949Z,3924.00
2022-12-26T14:10:51.215Z,3600.00
2022-12-26T14:15:58.403Z,5832.00
2022-12-26T14:21:05.620Z,4896.00
2022-12-26T14:26:12.808Z,2412.00
2022-12-26T14:31:19.956Z,2160.00
2022-12-26T14:36:27.210Z,1332.00
2022-12-26T14:41:34.432Z,1008.00
2022-12-26T14:46:41.633Z,684.00
2022-12-26T14:51:48.819Z,792.00
2022-12-26T14:56:56.059Z,1116.00
2022-12-26T15:02:03.458Z,1440.00
2022-12-26T15:07:14.028Z,10008.00
2022-12-26T15:12:17.656Z,10188.00
2022-12-26T15:17:24.909Z,10260.00
2022-12-26T15:22:32.152Z,9684.00
2022-12-26T15:27:39.465Z,9648.00
2022-12-26T15:32:46.714Z,9756.00
2022-12-26T15:37:53.913Z,9684.00
2022-12-26T15:43:01.155Z,9936.00
2022-12-26T15:48:08.323Z,9612.00
2022-12-26T15:53:15.556Z,9504.00
2022-12-26T15:58:22.768Z,9648.00
2022-12-26T16:03:30.072Z,9540.00
2022-12-26T16:08:37.191Z,9648.00
2022-12-26T16:13:44.479Z,9540.00
2022-12-26T16:18:51.621Z,9648.00
2022-12-26T16:23:58.911Z,9360.00
2022-12-26T16:29:06.169Z,9576.00
2022-12-26T16:34:13.341Z,9468.00
2022-12-26T16:39:20.541Z,9648.00
2022-12-26T16:44:30.396Z,9324.00
2022-12-26T16:49:34.927Z,9252.00
2022-12-26T16:54:42.144Z,9216.00
2022-12-26T16:59:49.388Z,9360.00
2022-12-26T17:04:58.552Z,9324.00
2022-12-26T17:10:07.001Z,9144.00
2022-12-26T17:15:11.110Z,9360.00
2022-12-26T17:20:18.343Z,9252.00
2022-12-26T17:25:25.551Z,9324.00
2022-12-26T17:30:32.895Z,9324.00
2022-12-26T17:36:25.359Z,9180.00
2022-12-26T17:40:47.497Z,9180.00
2022-12-26T17:45:54.731Z,9324.00
2022-12-26T17:51:01.917Z,9324.00
2022-12-26T17:56:09.145Z,9252.00
2022-12-26T18:01:21.031Z,9360.00
2022-12-26T18:06:23.823Z,9324.00
2022-12-26T18:11:31.039Z,9216.00
2022-12-26T18:16:38.617Z,9252.00
2022-12-26T18:21:45.899Z,9288.00
2022-12-26T18:26:53.111Z,9324.00
2022-12-26T18:32:00.400Z,9324.00
2022-12-26T18:37:07.493Z,9324.00
2022-12-26T18:42:15.999Z,9324.00
2022-12-26T18:47:23.421Z,9468.00
2022-12-26T18:52:30.644Z,9720.00
2022-12-26T18:57:37.851Z,9504.00
2022-12-26T19:02:45.211Z,9432.00
2022-12-26T19:07:52.324Z,9720.00
2022-12-26T19:13:05.032Z,9468.00
2022-12-26T19:18:07.289Z,9396.00
2022-12-26T19:23:14.544Z,9684.00
2022-12-26T19:28:21.754Z,9792.00
2022-12-26T19:33:29.313Z,9756.00
2022-12-26T19:38:36.886Z,9540.00
2022-12-26T19:43:44.502Z,9576.00
2022-12-26T19:48:51.865Z,9540.00
2022-12-26T19:53:59.320Z,9468.00
2022-12-26T19:59:06.668Z,9756.00
2022-12-26T20:04:13.850Z,9756.00
2022-12-26T20:09:21.348Z,9540.00
2022-12-26T20:14:28.744Z,9684.00
2022-12-26T20:19:36.091Z,9684.00
2022-12-26T20:24:43.471Z,9684.00
2022-12-26T20:29:50.936Z,9792.00
2022-12-26T20:34:58.239Z,9684.00
2022-12-26T20:40:05.708Z,9720.00
2022-12-26T20:45:13.423Z,9612.00
2022-12-26T20:50:21.065Z,9720.00
2022-12-26T20:55:28.644Z,9792.00
2022-12-26T21:00:35.980Z,9792.00
2022-12-26T21:05:43.492Z,9792.00
2022-12-26T21:10:51.021Z,9684.00
2022-12-26T21:15:58.232Z,9828.00
2022-12-26T21:21:05.489Z,9684.00
2022-12-26T21:26:12.686Z,9828.00
2022-12-26T21:31:20.012Z,9684.00
2022-12-26T21:36:27.145Z,9756.00
2022-12-26T21:41:34.274Z,9828.00
2022-12-26T21:46:41.572Z,9576.00
2022-12-26T21:51:48.754Z,9468.00
2022-12-26T21:56:55.978Z,9612.00
2022-12-26T22:02:03.385Z,9504.00
2022-12-26T22:07:10.457Z,9828.00
2022-12-26T22:12:17.648Z,9720.00
2022-12-26T22:17:24.872Z,9756.00
2022-12-26T22:22:32.115Z,9756.00
2022-12-26T22:27:39.245Z,10080.00
2022-12-26T22:32:46.439Z,10368.00
2022-12-26T22:37:53.670Z,10188.00
2022-12-26T22:43:00.873Z,9828.00
2022-12-26T22:48:10.653Z,9936.00
2022-12-26T22:53:18.398Z,9756.00
2022-12-26T22:58:25.590Z,9432.00
2022-12-26T23:03:32.902Z,9360.00
2022-12-26T23:08:40.101Z,9612.00
2022-12-26T23:13:47.269Z,9504.00
2022-12-26T23:18:54.440Z,9504.00
2022-12-26T23:24:01.607Z,9612.00
2022-12-26T23:29:08.816Z,9612.00
2022-12-26T23:34:16.017Z,9756.00
2022-12-26T23:39:23.223Z,9504.00
2022-12-26T23:44:30.391Z,9684.00
2022-12-26T23:49:37.625Z,9612.00
2022-12-26T23:54:44.952Z,9504.00
2022-12-26T23:59:52.174Z,9504.00
